CSCL Fuzhou — ELYA7 — position and weather

sailwx.info

Track history (hours):
 
Tides and Currents Weather Stations Pressure Air Temp Water Temp Dewpoint Dewpoint Depression Visibility Wind Speed Wind Dir Waves Ship Positions

CSCL Fuzhou

Last reported at 2015-Feb-23 23:33 UTC. Time now 2015-Mar-04 08:32 UTC.
Position N 22°11' E 120°12'.
Warning: this ship's position is 8 days out of date.

Length 207.4 m; beam 29.8 m; draft 11.4 m.

Type: Ship (hazmat cat A). MMSI: 636016483.

Date/timePositionNaut miles runAvg speedWind from/ knotsBaromVisibWave heightAir tempDewpointWater temp
2015-Feb-23 23:33N 22°11' E 120°12'1615.7
2015-Feb-23 22:33N 22°26' E 120°13'9 9.0
2015-Feb-23 21:33N 22°33' E 120°19'0 0.1
2015-Feb-23 17:16N 22°33' E 120°20'0 0.0
2015-Feb-23 16:28N 22°33' E 120°20'0 0.0
2015-Feb-23 13:22N 22°33' E 120°20'0 0.1
2015-Feb-23 12:33N 22°33' E 120°20'1 0.7
2015-Feb-23 11:33N 22°33' E 120°19'0 0.0
2015-Feb-23 10:33N 22°33' E 120°19'0 0.0
2015-Feb-23 09:33N 22°33' E 120°19'0 0.0
2015-Feb-23 08:33N 22°33' E 120°19'0 0.0
2015-Feb-23 07:33N 22°33' E 120°19'0 0.0
2015-Feb-23 06:33N 22°33' E 120°19'0 0.0
2015-Feb-23 05:33N 22°33' E 120°19'0 0.0
2015-Feb-23 04:33N 22°33' E 120°19'0 0.0
2015-Feb-23 03:27N 22°33' E 120°19'0 0.0
2015-Feb-23 02:33N 22°33' E 120°19'0 0.0
2015-Feb-23 01:33N 22°33' E 120°19'0 0.0
2015-Feb-23 00:33N 22°33' E 120°19'0 0.0
2015-Feb-22 23:33N 22°33' E 120°19'0 0.0
2015-Feb-22 22:33N 22°33' E 120°19'0 0.0
2015-Feb-22 21:33N 22°33' E 120°19'0 0.0
2015-Feb-22 20:33N 22°33' E 120°19'0 0.0
2015-Feb-22 19:33N 22°33' E 120°19'0 0.0
2015-Feb-22 18:33N 22°33' E 120°19'0 0.0
2015-Feb-22 17:33N 22°33' E 120°19'0 0.0
2015-Feb-22 16:33N 22°33' E 120°19'0 0.0
2015-Feb-22 15:33N 22°33' E 120°19'0 0.0
2015-Feb-22 14:33N 22°33' E 120°19'0 0.0
2015-Feb-22 13:27N 22°33' E 120°19'0 0.0
2015-Feb-22 12:27N 22°33' E 120°19'3 3.2
2015-Feb-22 11:33N 22°32' E 120°16'4 4.1
2015-Feb-22 10:33N 22°29' E 120°14'1313.3
2015-Feb-22 09:33N 22°16' E 120°12'1513.9
2015-Feb-22 08:30N 22°01' E 120°11'  
2015-Feb-14 05:17N 22°14' E 120°12'912.4
2015-Feb-14 04:33N 22°23' E 120°13'1110.7
2015-Feb-14 03:33N 22°33' E 120°18'1 0.8
2015-Feb-14 02:24N 22°33' E 120°19'0 0.0
2015-Feb-14 01:30N 22°33' E 120°19'0 0.0
2015-Feb-14 00:24N 22°33' E 120°19'  
Track history (hours):
 
Tides and Currents Weather Stations Pressure Air Temp Water Temp Dewpoint Dewpoint Depression Visibility Wind Speed Wind Dir Waves Ship Positions

CSCL Fuzhou

Last reported at 2015-Feb-23 23:33 UTC. Time now 2015-Mar-04 08:32 UTC.
Position N 22°11' E 120°12'.
Warning: this ship's position is 8 days out of date.

Length 207.4 m; beam 29.8 m; draft 11.4 m.

Type: Ship (hazmat cat A). MMSI: 636016483.

Date/timePositionNaut miles runAvg speedWind from/ knotsBaromVisibWave heightAir tempDewpointWater temp
2015-Feb-23 23:33N 22°11' E 120°12'1615.7
2015-Feb-23 22:33N 22°26' E 120°13'9 9.0
2015-Feb-23 21:33N 22°33' E 120°19'0 0.1
2015-Feb-23 17:16N 22°33' E 120°20'0 0.0
2015-Feb-23 16:28N 22°33' E 120°20'0 0.0
2015-Feb-23 13:22N 22°33' E 120°20'0 0.1
2015-Feb-23 12:33N 22°33' E 120°20'1 0.7
2015-Feb-23 11:33N 22°33' E 120°19'0 0.0
2015-Feb-23 10:33N 22°33' E 120°19'0 0.0
2015-Feb-23 09:33N 22°33' E 120°19'0 0.0
2015-Feb-23 08:33N 22°33' E 120°19'0 0.0
2015-Feb-23 07:33N 22°33' E 120°19'0 0.0
2015-Feb-23 06:33N 22°33' E 120°19'0 0.0
2015-Feb-23 05:33N 22°33' E 120°19'0 0.0
2015-Feb-23 04:33N 22°33' E 120°19'0 0.0
2015-Feb-23 03:27N 22°33' E 120°19'0 0.0
2015-Feb-23 02:33N 22°33' E 120°19'0 0.0
2015-Feb-23 01:33N 22°33' E 120°19'0 0.0
2015-Feb-23 00:33N 22°33' E 120°19'0 0.0
2015-Feb-22 23:33N 22°33' E 120°19'0 0.0
2015-Feb-22 22:33N 22°33' E 120°19'0 0.0
2015-Feb-22 21:33N 22°33' E 120°19'0 0.0
2015-Feb-22 20:33N 22°33' E 120°19'0 0.0
2015-Feb-22 19:33N 22°33' E 120°19'0 0.0
2015-Feb-22 18:33N 22°33' E 120°19'0 0.0
2015-Feb-22 17:33N 22°33' E 120°19'0 0.0
2015-Feb-22 16:33N 22°33' E 120°19'0 0.0
2015-Feb-22 15:33N 22°33' E 120°19'0 0.0
2015-Feb-22 14:33N 22°33' E 120°19'0 0.0
2015-Feb-22 13:27N 22°33' E 120°19'0 0.0
2015-Feb-22 12:27N 22°33' E 120°19'3 3.2
2015-Feb-22 11:33N 22°32' E 120°16'4 4.1
2015-Feb-22 10:33N 22°29' E 120°14'1313.3
2015-Feb-22 09:33N 22°16' E 120°12'1513.9
2015-Feb-22 08:30N 22°01' E 120°11'  
2015-Feb-14 05:17N 22°14' E 120°12'912.4
2015-Feb-14 04:33N 22°23' E 120°13'1110.7
2015-Feb-14 03:33N 22°33' E 120°18'1 0.8
2015-Feb-14 02:24N 22°33' E 120°19'0 0.0
2015-Feb-14 01:30N 22°33' E 120°19'0 0.0
2015-Feb-14 00:24N 22°33' E 120°19'  

Dump ship's entire track history